Time;durP1;ratioP1;P1;durP2;ratioP2;P2;SDS_P1;SDS_P2;PMS_P1;PMS_P2;Temp;Humidity;BMP_temperature;BMP_pressure;BME280_temperature;BME280_humidity;BME280_pressure;Samples;Min_cycle;Max_cycle;Signal;HPM_P1;HPM_P2
2022/12/27 00:00:55;;;;;;;6.10;2.10;;;;;;;2.09;100.00;101701.84;4982130;28;20778;-80
2022/12/27 00:03:23;;;;;;;5.15;2.15;;;;;;;2.06;100.00;101705.97;4955805;28;20055;-80
2022/12/27 00:05:51;;;;;;;10.38;2.17;;;;;;;2.05;100.00;101704.22;4927895;28;20432;-81
2022/12/27 00:08:18;;;;;;;10.57;2.00;;;;;;;2.02;100.00;101701.44;4986429;28;20050;-81
2022/12/27 00:10:45;;;;;;;7.45;2.40;;;;;;;1.99;100.00;101710.00;4954375;28;20439;-82
2022/12/27 00:13:13;;;;;;;8.10;1.92;;;;;;;1.97;100.00;101708.09;4991925;28;20045;-79
2022/12/27 00:15:40;;;;;;;4.80;1.77;;;;;;;1.96;100.00;101715.00;4978242;28;20054;-79
2022/12/27 00:18:08;;;;;;;13.23;2.30;;;;;;;1.95;100.00;101711.53;4971584;28;20043;-81
2022/12/27 00:20:35;;;;;;;5.85;2.10;;;;;;;1.97;100.00;101711.63;4950225;28;20057;-79
2022/12/27 00:23:03;;;;;;;2.83;1.75;;;;;;;2.01;100.00;101710.94;4986403;28;20046;-78
2022/12/27 00:25:30;;;;;;;6.00;2.15;;;;;;;2.07;100.00;101712.97;4969918;28;20054;-81
2022/12/27 00:27:57;;;;;;;9.98;2.70;;;;;;;2.12;100.00;101712.41;4974706;28;20046;-80
2022/12/27 00:30:24;;;;;;;9.57;1.88;;;;;;;2.17;100.00;101720.44;4989672;28;20047;-80
2022/12/27 00:32:52;;;;;;;7.13;1.80;;;;;;;2.19;100.00;101721.38;4972892;28;20050;-80
2022/12/27 00:35:19;;;;;;;10.00;2.17;;;;;;;2.20;100.00;101715.41;4957311;28;20054;-79
2022/12/27 00:37:47;;;;;;;5.97;1.65;;;;;;;2.20;100.00;101714.50;4946267;28;20061;-80
2022/12/27 00:40:14;;;;;;;6.78;2.10;;;;;;;2.20;100.00;101706.72;4957200;28;20047;-80
2022/12/27 00:42:42;;;;;;;5.35;1.90;;;;;;;2.21;100.00;101717.19;4962030;28;20148;-81
2022/12/27 00:45:09;;;;;;;6.70;2.30;;;;;;;2.20;100.00;101718.00;4958505;28;20055;-81
2022/12/27 00:47:37;;;;;;;15.02;2.25;;;;;;;2.22;100.00;101718.06;4971216;28;20046;-80
2022/12/27 00:50:04;;;;;;;8.88;1.92;;;;;;;2.24;100.00;101713.84;4989072;28;20046;-80
2022/12/27 00:52:32;;;;;;;9.15;1.90;;;;;;;2.26;100.00;101707.91;4922446;28;20047;-81
2022/12/27 00:54:59;;;;;;;7.95;1.60;;;;;;;2.29;100.00;101718.47;4974261;28;20523;-80
2022/12/27 00:57:27;;;;;;;5.57;2.03;;;;;;;2.34;100.00;101730.00;4947033;28;20051;-80
2022/12/27 00:59:54;;;;;;;6.38;1.50;;;;;;;2.40;100.00;101719.03;4957600;28;20576;-79
2022/12/27 01:02:21;;;;;;;8.85;1.92;;;;;;;2.45;100.00;101727.03;4959834;28;20384;-80
2022/12/27 01:04:49;;;;;;;12.18;2.78;;;;;;;2.49;100.00;101732.44;4972659;28;20058;-79
2022/12/27 01:07:17;;;;;;;9.45;2.10;;;;;;;2.51;100.00;101732.53;4942941;28;20049;-80
2022/12/27 01:09:44;;;;;;;9.00;2.28;;;;;;;2.56;100.00;101725.88;4941292;28;20046;-81
2022/12/27 01:12:11;;;;;;;13.70;2.60;;;;;;;2.57;100.00;101735.47;4963685;28;20039;-81
2022/12/27 01:14:39;;;;;;;7.40;1.98;;;;;;;2.57;100.00;101740.69;4956758;28;20058;-80
2022/12/27 01:17:07;;;;;;;9.23;2.20;;;;;;;2.57;100.00;101743.28;4975008;28;20520;-81
2022/12/27 01:19:35;;;;;;;5.78;1.80;;;;;;;2.56;100.00;101741.47;4974501;28;20054;-81
2022/12/27 01:22:03;;;;;;;11.73;2.75;;;;;;;2.57;100.00;101743.28;4954487;28;20061;-80
2022/12/27 01:24:32;;;;;;;5.50;2.13;;;;;;;2.59;100.00;101741.66;4976689;28;20054;-81
2022/12/27 01:26:59;;;;;;;9.30;1.85;;;;;;;2.61;100.00;101750.41;4961012;28;20070;-80
2022/12/27 01:29:26;;;;;;;14.60;2.00;;;;;;;2.66;100.00;101756.72;4956585;28;20047;-81
2022/12/27 01:31:54;;;;;;;10.38;2.10;;;;;;;2.70;100.00;101750.88;4972238;28;20053;-80
2022/12/27 01:34:22;;;;;;;13.30;1.65;;;;;;;2.76;100.00;101765.91;4969192;28;20051;-81
2022/12/27 01:36:49;;;;;;;8.88;2.63;;;;;;;2.79;100.00;101759.94;4935873;28;20055;-81
2022/12/27 01:39:16;;;;;;;14.38;2.22;;;;;;;2.85;100.00;101761.13;4972147;28;20512;-79
2022/12/27 01:44:38;;;;;;;8.77;1.80;;;;;;;2.93;100.00;101765.00;4964343;28;20043;-81
2022/12/27 01:47:39;;;;;;;11.32;2.30;;;;;;;2.99;100.00;101755.72;4980105;28;20058;-81
2022/12/27 01:50:06;;;;;;;10.25;1.98;;;;;;;3.01;100.00;101756.69;5003807;28;20050;-81
2022/12/27 01:52:46;;;;;;;6.07;1.90;;;;;;;3.05;100.00;101766.44;4975909;28;20080;-81
2022/12/27 01:55:39;;;;;;;13.23;2.17;;;;;;;3.08;100.00;101777.91;5003080;28;20050;-81
2022/12/27 01:58:12;;;;;;;7.22;2.13;;;;;;;3.14;100.00;101787.72;4990188;28;20312;-81
2022/12/27 02:00:42;;;;;;;9.50;2.13;;;;;;;3.19;100.00;101798.34;4997514;28;20046;-80
2022/12/27 02:03:12;;;;;;;9.98;1.83;;;;;;;3.21;100.00;101796.69;4994873;28;20050;-79
2022/12/27 02:05:41;;;;;;;9.90;2.07;;;;;;;3.27;100.00;101797.00;4994842;28;20042;-82
2022/12/27 02:08:39;;;;;;;8.38;2.35;;;;;;;3.35;100.00;101800.00;4973826;28;20042;-79
2022/12/27 02:11:08;;;;;;;12.82;2.40;;;;;;;3.39;100.00;101801.91;5003385;28;20042;-81
2022/12/27 02:13:41;;;;;;;12.32;3.45;;;;;;;3.39;100.00;101800.19;4969217;28;20050;-81
2022/12/27 02:16:15;;;;;;;13.77;2.28;;;;;;;3.39;100.00;101792.38;4970302;28;20065;-81
2022/12/27 02:18:44;;;;;;;11.20;2.30;;;;;;;3.38;100.00;101797.50;4996351;28;20054;-81
2022/12/27 02:21:24;;;;;;;8.40;2.90;;;;;;;3.36;100.00;101792.22;5009529;28;20046;-80
2022/12/27 02:24:49;;;;;;;8.77;2.08;;;;;;;3.38;100.00;101805.34;4966622;28;20420;-82
2022/12/27 02:27:23;;;;;;;6.68;1.92;;;;;;;3.36;100.00;101807.84;4963057;28;20058;-82
2022/12/27 02:30:06;;;;;;;9.70;2.30;;;;;;;3.36;100.00;101805.25;4965247;28;20050;-81
2022/12/27 02:32:59;;;;;;;10.10;1.92;;;;;;;3.36;100.00;101807.84;4986308;28;20058;-81
2022/12/27 02:36:08;;;;;;;6.63;2.20;;;;;;;3.36;100.00;101814.78;4984919;28;20053;-81
2022/12/27 02:38:41;;;;;;;15.13;2.60;;;;;;;3.34;100.00;101808.63;4965716;28;20057;-80
2022/12/27 02:55:19;;;;;;;10.20;2.35;;;;;;;3.30;100.00;101792.81;4947262;28;20057;-80
2022/12/27 02:57:59;;;;;;;11.40;2.03;;;;;;;3.30;100.00;101799.75;4994180;28;20057;-80
2022/12/27 03:03:27;;;;;;;9.68;1.70;;;;;;;3.32;100.00;101795.50;4983515;28;20046;-80
2022/12/27 03:06:43;;;;;;;6.30;1.75;;;;;;;3.31;100.00;101796.34;4991224;28;20551;-80
2022/12/27 03:18:17;;;;;;;14.50;2.22;;;;;;;3.31;100.00;101825.88;4995528;28;20057;-79
2022/12/27 03:26:27;;;;;;;7.97;1.92;;;;;;;3.32;100.00;101829.38;4950095;28;20508;-80
2022/12/27 03:34:38;;;;;;;8.47;2.50;;;;;;;3.42;100.00;101834.22;4993785;28;20042;-81
2022/12/27 03:40:03;;;;;;;8.13;1.70;;;;;;;3.39;100.00;101830.59;4980923;28;20054;-80
2022/12/27 03:46:32;;;;;;;8.70;1.90;;;;;;;3.31;100.00;101830.22;4991963;28;20055;-80
2022/12/27 03:48:18;;;;;;;11.80;2.42;;;;;;;3.29;100.00;101839.66;4994764;28;20065;-80
2022/12/27 03:50:53;;;;;;;9.30;2.00;;;;;;;3.26;100.00;101843.00;5008809;28;20086;-80
2022/12/27 03:53:28;;;;;;;9.00;2.13;;;;;;;3.20;100.00;101850.53;5007985;28;20508;-80
2022/12/27 03:55:56;;;;;;;7.95;1.67;;;;;;;3.12;100.00;101844.94;5007105;28;20046;-80
2022/12/27 03:58:23;;;;;;;17.05;2.13;;;;;;;3.06;100.00;101851.53;4946884;28;20046;-80
2022/12/27 04:00:52;;;;;;;7.05;2.20;;;;;;;2.99;100.00;101855.56;4997433;28;20458;-80
2022/12/27 04:03:19;;;;;;;16.42;2.75;;;;;;;2.93;100.00;101847.44;4994525;28;20042;-80
2022/12/27 04:05:47;;;;;;;12.00;2.47;;;;;;;2.88;100.00;101851.53;4993039;28;20042;-80
2022/12/27 04:35:56;;;;;;;14.32;2.72;;;;;;;2.95;100.00;101912.59;4992098;28;20039;-80
2022/12/27 04:38:30;;;;;;;8.45;2.72;;;;;;;2.98;100.00;101918.84;4992309;28;20050;-81
2022/12/27 04:55:10;;;;;;;9.05;2.08;;;;;;;2.95;100.00;101926.53;4994313;28;20054;-81
2022/12/27 04:57:37;;;;;;;11.52;3.15;;;;;;;2.95;100.00;101926.53;5006701;28;20057;-80
2022/12/27 05:02:51;;;;;;;11.23;3.13;;;;;;;2.87;100.00;101913.13;4975670;28;20042;-81
2022/12/27 05:05:20;;;;;;;17.38;2.97;;;;;;;2.83;100.00;101907.66;4987503;28;20049;-80
2022/12/27 05:16:07;;;;;;;14.25;2.35;;;;;;;2.64;100.00;101918.81;4968551;28;20050;-81
2022/12/27 05:18:35;;;;;;;8.02;1.83;;;;;;;2.63;100.00;101912.72;4955647;28;20057;-81
2022/12/27 05:21:04;;;;;;;14.02;2.28;;;;;;;2.63;100.00;101914.44;4964810;28;20057;-80
2022/12/27 05:26:27;;;;;;;2.97;1.65;;;;;;;2.63;100.00;101922.25;4996499;28;20046;-81
2022/12/27 05:28:56;;;;;;;10.82;2.35;;;;;;;2.64;100.00;101921.44;4991821;28;20053;-79
2022/12/27 05:31:26;;;;;;;16.13;2.75;;;;;;;2.65;100.00;101931.94;4966761;28;20050;-80
2022/12/27 05:33:56;;;;;;;8.05;2.35;;;;;;;2.67;100.00;101938.09;4979313;28;20039;-80
2022/12/27 05:36:24;;;;;;;10.27;2.22;;;;;;;2.66;100.00;101940.63;4986817;28;20067;-80
2022/12/27 05:38:51;;;;;;;8.88;2.20;;;;;;;2.64;100.00;101942.25;5001486;28;20815;-80
2022/12/27 05:41:19;;;;;;;13.32;2.53;;;;;;;2.60;100.00;101951.59;4975129;28;20050;-80
2022/12/27 05:43:46;;;;;;;5.57;1.60;;;;;;;2.58;100.00;101961.03;4977803;28;20038;-80
2022/12/27 05:46:17;;;;;;;7.85;2.15;;;;;;;2.56;100.00;101965.25;4994626;28;20055;-80
2022/12/27 05:48:45;;;;;;;;;;;;;;;2.54;100.00;101967.78;4977028;28;20782;-80
2022/12/27 05:51:20;;;;;;;7.05;2.20;;;;;;;2.53;100.00;101960.81;4965035;28;20386;-80
2022/12/27 05:53:48;;;;;;;11.48;2.53;;;;;;;2.50;100.00;101958.03;4972368;28;20086;-80
2022/12/27 05:56:18;;;;;;;9.20;2.55;;;;;;;2.48;100.00;101953.56;4974347;28;20062;-80
2022/12/27 05:58:46;;;;;;;8.98;3.05;;;;;;;2.46;100.00;101958.69;4952694;28;20051;-80
2022/12/27 06:01:15;;;;;;;16.70;3.08;;;;;;;2.47;100.00;101962.16;4955612;28;20055;-80
2022/12/27 06:03:44;;;;;;;10.73;2.05;;;;;;;2.46;100.00;101957.78;4939996;28;20051;-80
2022/12/27 06:06:12;;;;;;;8.10;2.22;;;;;;;2.45;100.00;101959.47;4962795;28;20411;-81
2022/12/27 06:08:40;;;;;;;10.55;2.90;;;;;;;2.45;100.00;101963.78;4955662;28;20049;-80
2022/12/27 06:11:11;;;;;;;9.35;2.33;;;;;;;2.44;100.00;101969.78;4958086;29;20043;-80
2022/12/27 06:13:41;;;;;;;13.30;2.95;;;;;;;2.41;100.00;101962.72;4943394;29;20039;-80
2022/12/27 06:16:11;;;;;;;10.65;2.63;;;;;;;2.41;100.00;101972.25;4957129;29;20051;-80
2022/12/27 06:18:40;;;;;;;12.27;3.20;;;;;;;2.39;100.00;101976.47;4926557;28;20074;-80
2022/12/27 06:21:11;;;;;;;11.02;2.85;;;;;;;2.38;100.00;101975.56;4941201;29;20303;-80
2022/12/27 06:23:40;;;;;;;8.38;2.83;;;;;;;2.38;100.00;101983.34;4937350;28;20039;-81
2022/12/27 06:26:11;;;;;;;14.35;2.45;;;;;;;2.40;100.00;101988.66;4956758;29;20047;-80
2022/12/27 06:28:39;;;;;;;16.02;2.88;;;;;;;2.40;100.00;101989.56;4971639;28;20050;-80
2022/12/27 06:31:09;;;;;;;9.48;2.47;;;;;;;2.43;100.00;101994.03;4936822;29;20051;-80
2022/12/27 06:33:37;;;;;;;15.43;2.80;;;;;;;2.45;100.00;101998.50;4942973;28;20055;-80
2022/12/27 06:36:09;;;;;;;17.85;3.08;;;;;;;2.53;100.00;102011.91;4957167;29;20474;-80
2022/12/27 06:38:37;;;;;;;14.35;2.83;;;;;;;2.58;100.00;102010.47;4948578;28;20053;-80
2022/12/27 06:41:07;;;;;;;10.55;2.88;;;;;;;2.64;100.00;101999.50;4942368;28;20055;-80
2022/12/27 06:43:34;;;;;;;16.73;3.40;;;;;;;2.66;100.00;102014.38;4957225;29;20036;-80
2022/12/27 06:46:04;;;;;;;9.43;3.10;;;;;;;2.69;100.00;102014.56;4973233;28;20393;-80
2022/12/27 06:48:32;;;;;;;10.82;3.55;;;;;;;2.73;100.00;102020.81;4935353;28;20460;-80
2022/12/27 06:51:07;;;;;;;14.32;2.50;;;;;;;2.76;100.00;102028.81;4941783;28;20050;-81
2022/12/27 06:53:37;;;;;;;20.70;4.25;;;;;;;2.78;100.00;102035.00;4966867;28;20057;-81
2022/12/27 06:56:05;;;;;;;;;;;;;;;2.79;100.00;102046.28;4960623;28;20070;-80
2022/12/27 06:58:33;;;;;;;19.10;2.63;;;;;;;2.79;100.00;102048.91;4992123;28;19922;-80
2022/12/27 07:01:15;;;;;;;12.63;2.75;;;;;;;2.82;100.00;102051.69;4977213;28;20047;-80
2022/12/27 07:03:47;;;;;;;20.55;3.78;;;;;;;2.80;100.00;102053.28;4931291;28;25768;-80
2022/12/27 07:06:15;;;;;;;9.80;2.95;;;;;;;2.80;100.00;102058.47;5007883;28;20051;-80
2022/12/27 07:08:42;;;;;;;10.00;3.00;;;;;;;2.78;100.00;102060.09;4948407;28;20512;-81
2022/12/27 07:11:11;;;;;;;8.35;2.33;;;;;;;2.75;100.00;102068.66;4961774;28;20049;-80
2022/12/27 07:13:42;;;;;;;12.32;2.65;;;;;;;2.76;100.00;102069.53;4981938;28;20692;-80
2022/12/27 07:16:10;;;;;;;;;;;;;;;2.72;100.00;102061.59;4991627;28;20038;-80
2022/12/27 07:18:38;;;;;;;10.82;3.00;;;;;;;2.66;100.00;102063.81;4975253;28;19922;-80
2022/12/27 07:21:10;;;;;;;11.15;2.92;;;;;;;2.62;100.00;102064.47;4945602;28;20408;-81
2022/12/27 07:23:38;;;;;;;15.57;2.95;;;;;;;2.57;100.00;102065.03;4989265;28;20053;-81
2022/12/27 07:26:11;;;;;;;12.55;3.08;;;;;;;2.52;100.00;102068.28;4966954;28;20049;-80
2022/12/27 07:28:39;;;;;;;20.08;3.10;;;;;;;2.46;100.00;102077.47;4959154;28;20038;-80
2022/12/27 07:31:11;;;;;;;9.45;2.75;;;;;;;2.40;100.00;102077.09;4982704;28;20054;-81
2022/12/27 07:33:39;;;;;;;10.98;3.13;;;;;;;2.36;100.00;102077.75;4974015;28;20404;-81
2022/12/27 07:36:10;;;;;;;10.20;2.85;;;;;;;2.29;100.00;102082.63;4952210;28;20050;-80
2022/12/27 07:38:37;;;;;;;9.30;3.15;;;;;;;2.23;100.00;102087.47;4985383;28;20574;-80
2022/12/27 07:41:05;;;;;;;11.18;2.47;;;;;;;2.20;100.00;102089.88;4986942;28;20055;-80
2022/12/27 07:43:34;;;;;;;12.40;3.00;;;;;;;2.14;100.00;102102.56;4956214;28;20051;-80
2022/12/27 07:46:14;;;;;;;11.07;2.90;;;;;;;2.08;100.00;102113.50;4975273;28;20035;-80
2022/12/27 07:48:42;;;;;;;;;;;;;;;2.03;100.00;102114.03;4971118;28;20042;-80
2022/12/27 07:51:10;;;;;;;15.13;2.90;;;;;;;2.00;100.00;102122.53;4961864;28;19922;-80
2022/12/27 07:53:37;;;;;;;14.90;2.50;;;;;;;1.98;100.00;102126.75;4975634;28;20058;-80
2022/12/27 07:56:15;;;;;;;10.88;2.47;;;;;;;1.97;100.00;102135.38;4952428;28;20043;-81
2022/12/27 07:58:53;;;;;;;14.65;2.97;;;;;;;2.00;100.00;102130.34;5004520;28;20055;-81
2022/12/27 08:01:22;;;;;;;10.13;2.88;;;;;;;2.02;100.00;102140.81;4979169;28;20170;-80
2022/12/27 08:03:50;;;;;;;28.02;8.70;;;;;;;2.03;100.00;102135.72;4974780;28;20047;-80
2022/12/27 08:06:23;;;;;;;20.73;4.28;;;;;;;2.02;100.00;102143.44;4944511;28;20057;-80
2022/12/27 08:08:52;;;;;;;10.63;2.30;;;;;;;2.01;100.00;102145.13;4968933;28;20058;-81
2022/12/27 08:11:20;;;;;;;10.68;3.00;;;;;;;2.01;100.00;102155.53;4970678;28;20070;-80
2022/12/27 08:13:47;;;;;;;16.13;2.35;;;;;;;1.99;100.00;102149.34;4967761;28;20396;-80
2022/12/27 08:16:21;;;;;;;9.00;2.67;;;;;;;1.98;100.00;102151.84;4993440;28;20050;-81
2022/12/27 08:18:48;;;;;;;18.85;2.92;;;;;;;1.95;100.00;102150.00;4990737;28;20063;-80
2022/12/27 08:21:16;;;;;;;7.03;2.60;;;;;;;1.93;100.00;102154.19;4991651;28;20051;-80
2022/12/27 08:23:43;;;;;;;19.05;2.90;;;;;;;1.92;100.00;102155.00;4949577;28;20547;-80
2022/12/27 08:26:11;;;;;;;7.75;2.40;;;;;;;1.91;100.00;102160.97;4985912;28;20046;-82
2022/12/27 08:28:38;;;;;;;13.40;3.97;;;;;;;1.92;100.00;102158.47;4978164;28;20047;-81
2022/12/27 08:31:08;;;;;;;11.27;3.15;;;;;;;1.91;100.00;102159.31;4991020;28;20091;-82
2022/12/27 08:33:36;;;;;;;11.97;2.30;;;;;;;1.92;100.00;102155.88;4973159;28;20050;-83
2022/12/27 08:36:06;;;;;;;11.60;3.00;;;;;;;1.97;100.00;102157.84;4961414;28;20058;-82
2022/12/27 08:38:54;;;;;;;8.05;2.17;;;;;;;1.99;100.00;102159.75;4973286;28;20035;-82
2022/12/27 08:41:22;;;;;;;12.50;2.47;;;;;;;2.02;100.00;102159.91;4974833;28;20050;-81
2022/12/27 08:43:49;;;;;;;13.00;2.95;;;;;;;2.05;100.00;102159.22;4977326;28;20061;-82
2022/12/27 08:46:18;;;;;;;16.90;3.17;;;;;;;2.07;100.00;102162.81;4959011;28;20515;-82
2022/12/27 08:48:47;;;;;;;11.43;2.65;;;;;;;2.09;100.00;102166.38;4942797;28;20065;-81
2022/12/27 08:51:15;;;;;;;15.02;2.70;;;;;;;2.10;100.00;102166.47;4986852;28;20485;-82
2022/12/27 08:53:56;;;;;;;12.50;3.58;;;;;;;2.13;100.00;102174.44;4979605;28;20069;-82
2022/12/27 08:56:24;;;;;;;14.18;3.30;;;;;;;2.14;100.00;102178.84;4974756;28;20043;-83
2022/12/27 08:58:54;;;;;;;15.30;3.20;;;;;;;2.19;100.00;102180.81;4990598;28;20065;-82
2022/12/27 09:01:21;;;;;;;12.48;3.10;;;;;;;2.22;100.00;102183.63;4992300;28;20057;-81
2022/12/27 09:03:49;;;;;;;15.00;2.97;;;;;;;2.25;100.00;102176.88;4989819;28;20042;-81
2022/12/27 09:06:22;;;;;;;10.73;2.50;;;;;;;2.29;100.00;102184.06;4975370;28;20061;-81
2022/12/27 09:08:50;;;;;;;7.97;2.58;;;;;;;2.31;100.00;102182.44;4956003;28;20038;-81
2022/12/27 09:11:28;;;;;;;9.05;3.17;;;;;;;2.35;100.00;102191.31;4972194;28;20057;-81
2022/12/27 09:14:03;;;;;;;14.43;3.92;;;;;;;2.40;100.00;102196.78;4992202;28;20069;-81
2022/12/27 09:16:34;;;;;;;13.70;2.92;;;;;;;2.44;100.00;102194.47;4987128;28;20042;-82
2022/12/27 09:19:03;;;;;;;11.98;2.50;;;;;;;2.47;100.00;102196.34;4975122;28;20046;-83
2022/12/27 09:21:32;;;;;;;14.45;2.60;;;;;;;2.53;100.00;102196.69;4972528;28;20420;-82
2022/12/27 09:24:00;;;;;;;11.03;2.70;;;;;;;2.58;100.00;102200.44;4980971;28;20050;-81
2022/12/27 09:26:30;;;;;;;15.20;2.80;;;;;;;2.64;100.00;102200.78;4970755;28;20794;-82
2022/12/27 09:28:59;;;;;;;7.93;2.38;;;;;;;2.69;100.00;102201.97;4989934;28;20085;-82
2022/12/27 09:31:27;;;;;;;12.60;3.15;;;;;;;2.76;100.00;102197.09;4948041;28;20173;-81
2022/12/27 09:33:55;;;;;;;16.85;3.25;;;;;;;2.79;100.00;102186.88;4991727;28;20055;-81
2022/12/27 09:36:26;;;;;;;13.77;2.50;;;;;;;2.85;100.00;102197.63;4973423;28;20093;-83
2022/12/27 09:38:54;;;;;;;;;;;;;;;2.92;100.00;102199.75;4946426;28;20074;-82
2022/12/27 09:41:50;;;;;;;12.95;2.88;;;;;;;2.97;100.00;102194.78;4993923;28;19922;-81
2022/12/27 09:45:02;;;;;;;10.88;2.63;;;;;;;3.02;100.00;102196.84;4991569;28;20038;-82
2022/12/27 09:47:41;;;;;;;15.70;3.08;;;;;;;3.08;100.00;102186.78;4979916;28;20050;-81
2022/12/27 09:50:14;;;;;;;8.98;2.88;;;;;;;3.13;100.00;102190.50;4993847;28;20054;-82
2022/12/27 09:53:00;;;;;;;8.77;2.60;;;;;;;3.20;100.00;102191.75;4986524;28;20047;-85
2022/12/27 09:55:30;;;;;;;14.07;3.33;;;;;;;3.25;100.00;102192.91;4950551;28;20161;-83
2022/12/27 09:58:12;;;;;;;14.32;3.38;;;;;;;3.31;100.00;102194.97;4994063;28;20050;-84
2022/12/27 10:00:39;;;;;;;10.75;3.00;;;;;;;3.36;100.00;102190.88;4984556;28;20046;-82
2022/12/27 10:03:13;;;;;;;10.02;2.60;;;;;;;3.39;100.00;102198.88;4983241;28;20054;-81
2022/12/27 10:05:44;;;;;;;11.18;3.15;;;;;;;3.42;100.00;102196.44;5000437;28;20051;-82
2022/12/27 10:08:32;;;;;;;10.20;2.65;;;;;;;3.47;100.00;102201.88;4980164;28;20069;-83
2022/12/27 10:11:37;;;;;;;10.85;2.85;;;;;;;3.50;100.00;102213.38;4974742;28;20054;-82
2022/12/27 10:14:22;;;;;;;10.73;2.50;;;;;;;3.57;100.00;102224.13;4980607;28;20054;-83
2022/12/27 10:17:27;;;;;;;11.70;3.00;;;;;;;3.63;100.00;102219.22;4968923;28;20062;-82
2022/12/27 10:20:15;;;;;;;10.85;2.30;;;;;;;3.68;100.00;102228.19;4984599;28;20053;-82
2022/12/27 10:22:51;;;;;;;11.05;2.83;;;;;;;3.72;100.00;102224.94;4996601;28;20055;-83
2022/12/27 10:25:24;;;;;;;14.88;2.20;;;;;;;3.78;100.00;102238.31;4966872;28;21165;-82
2022/12/27 10:28:00;;;;;;;8.57;2.15;;;;;;;3.82;100.00;102229.84;4997868;28;20299;-82
2022/12/27 10:30:29;;;;;;;12.70;2.97;;;;;;;3.87;100.00;102230.97;4997037;28;20058;-82
2022/12/27 10:32:57;;;;;;;12.52;3.20;;;;;;;3.95;100.00;102227.88;4967205;28;20069;-81
2022/12/27 10:35:25;;;;;;;16.20;3.05;;;;;;;4.04;100.00;102231.84;4964071;28;20039;-82
2022/12/27 10:37:52;;;;;;;13.05;4.15;;;;;;;4.14;100.00;102228.03;4980000;28;20061;-82
2022/12/27 10:40:34;;;;;;;10.93;3.20;;;;;;;4.21;100.00;102230.09;4949553;28;23125;-82
2022/12/27 10:43:23;;;;;;;6.82;2.25;;;;;;;4.33;100.00;102231.56;4985401;28;20061;-82
2022/12/27 10:45:52;;;;;;;7.20;2.20;;;;;;;4.38;100.00;102227.47;4995539;28;20050;-82
2022/12/27 10:48:28;;;;;;;12.27;2.50;;;;;;;4.41;100.00;102230.25;4996837;28;20026;-81
2022/12/27 10:51:16;;;;;;;7.35;2.30;;;;;;;4.42;100.00;102234.63;4981615;28;20058;-83
2022/12/27 10:53:46;;;;;;;8.88;2.05;;;;;;;4.39;100.00;102238.00;4996182;28;20101;-84
2022/12/27 10:56:19;;;;;;;7.93;2.35;;;;;;;4.38;100.00;102245.72;4976323;28;20034;-84
2022/12/27 10:58:49;;;;;;;13.85;2.90;;;;;;;4.36;100.00;102247.38;4984967;28;20120;-83
2022/12/27 11:01:28;;;;;;;13.68;2.78;;;;;;;4.37;100.00;102239.63;4981516;28;20027;-84
2022/12/27 11:04:09;;;;;;;;;;;;;;;4.41;100.00;102243.28;4995049;28;20054;-82
2022/12/27 11:06:52;;;;;;;8.55;2.67;;;;;;;4.45;100.00;102248.72;4996893;28;19922;-83
2022/12/27 11:09:32;;;;;;;16.80;2.95;;;;;;;4.48;100.00;102243.69;4980446;28;20046;-82
2022/12/27 11:12:17;;;;;;;14.48;2.35;;;;;;;4.51;100.00;102250.75;4959289;28;20387;-83
2022/12/27 11:15:19;;;;;;;20.35;3.22;;;;;;;4.54;100.00;102243.09;4990712;28;20050;-83
2022/12/27 11:17:54;;;;;;;11.30;2.38;;;;;;;4.56;100.00;102240.56;4994868;28;20051;-83
2022/12/27 11:20:40;;;;;;;6.68;2.53;;;;;;;4.60;100.00;102246.00;4984938;28;20051;-81
2022/12/27 11:23:09;;;;;;;10.27;2.78;;;;;;;4.67;100.00;102249.81;4978386;28;20042;-81
2022/12/27 11:25:51;;;;;;;11.15;2.50;;;;;;;4.75;100.00;102250.22;4995851;28;20415;-84
2022/12/27 11:28:49;;;;;;;10.57;2.50;;;;;;;4.89;100.00;102251.75;4949795;28;20053;-83
2022/12/27 11:31:47;;;;;;;7.70;2.00;;;;;;;5.04;100.00;102242.03;4986836;28;20043;-83
2022/12/27 11:34:31;;;;;;;9.38;2.13;;;;;;;5.24;100.00;102239.50;4988126;28;20476;-81
2022/12/27 11:37:06;;;;;;;6.82;1.92;;;;;;;5.39;100.00;102244.56;4980549;28;20046;-84
2022/12/27 11:39:45;;;;;;;11.45;2.35;;;;;;;5.51;100.00;102244.22;4964295;28;20530;-84
2022/12/27 11:42:27;;;;;;;11.48;3.22;;;;;;;5.62;100.00;102243.91;4996120;28;20058;-81
2022/12/27 11:45:23;;;;;;;11.60;2.53;;;;;;;5.65;100.00;102238.81;4979258;28;20503;-83
2022/12/27 11:47:59;;;;;;;11.15;2.20;;;;;;;5.70;100.00;102239.00;4978533;28;20046;-84
2022/12/27 11:50:27;;;;;;;8.93;1.98;;;;;;;5.70;100.00;102239.00;4979522;28;20058;-83
2022/12/27 11:53:03;;;;;;;12.00;2.25;;;;;;;5.72;100.00;102242.59;4984841;28;20389;-84
2022/12/27 11:55:49;;;;;;;12.50;2.63;;;;;;;5.73;100.00;102241.78;4997767;28;20050;-84
2022/12/27 11:58:44;;;;;;;6.13;1.73;;;;;;;5.69;100.00;102242.47;4955873;28;20065;-83
2022/12/27 12:01:31;;;;;;;5.50;1.95;;;;;;;5.64;100.00;102239.63;5005101;28;20173;-83
2022/12/27 12:04:36;;;;;;;8.40;2.05;;;;;;;5.66;100.00;102239.69;4972372;28;20065;-83
2022/12/27 12:07:23;;;;;;;5.97;2.00;;;;;;;5.71;100.00;102237.28;4996794;28;20427;-83
2022/12/27 12:09:59;;;;;;;12.55;2.22;;;;;;;5.75;100.00;102229.66;4986420;28;20038;-83
2022/12/27 12:12:55;;;;;;;7.38;2.10;;;;;;;5.81;100.00;102229.94;4978759;28;20054;-84
2022/12/27 12:15:56;;;;;;;15.80;2.75;;;;;;;5.81;100.00;102222.06;4991677;28;20081;-83
2022/12/27 12:18:33;;;;;;;;;;;;;;;5.77;100.00;102212.31;4976282;28;20061;-83
2022/12/27 12:21:17;;;;;;;8.80;2.22;;;;;;;5.74;100.00;102209.53;4994874;28;19929;-81
2022/12/27 12:24:29;;;;;;;12.57;2.55;;;;;;;5.70;100.00;102205.00;4979866;28;20050;-84
2022/12/27 12:27:34;;;;;;;6.38;2.33;;;;;;;5.63;100.00;102213.41;4993704;28;20047;-83
2022/12/27 12:30:11;;;;;;;11.43;2.30;;;;;;;5.55;100.00;102204.31;4952544;28;20054;-82
2022/12/27 12:32:57;;;;;;;12.15;2.13;;;;;;;5.49;100.00;102199.72;4977791;28;20054;-83
2022/12/27 12:35:42;;;;;;;10.23;1.80;;;;;;;5.43;100.00;102199.44;4993091;28;20058;-83
2022/12/27 12:38:22;;;;;;;4.95;2.20;;;;;;;5.37;100.00;102197.44;4975655;28;20054;-83
2022/12/27 12:41:01;;;;;;;10.35;1.88;;;;;;;5.37;100.00;102200.06;4986588;28;20045;-83
2022/12/27 12:43:59;;;;;;;10.35;2.30;;;;;;;5.38;100.00;102198.31;4978017;28;20465;-83
2022/12/27 12:47:01;;;;;;;9.30;2.38;;;;;;;5.41;100.00;102190.63;4981911;28;20061;-83
2022/12/27 12:49:51;;;;;;;12.18;2.33;;;;;;;5.44;100.00;102190.75;4992635;28;20050;-83
2022/12/27 12:52:24;;;;;;;4.93;2.13;;;;;;;5.42;100.00;102182.84;4982047;28;20722;-83
2022/12/27 12:55:04;;;;;;;10.43;2.55;;;;;;;5.40;100.00;102189.72;4979269;28;20392;-83
2022/12/27 12:57:34;;;;;;;8.43;2.25;;;;;;;5.37;100.00;102184.38;4973622;28;20381;-84
2022/12/27 13:00:24;;;;;;;11.18;2.00;;;;;;;5.34;100.00;102178.97;4970178;28;20046;-84
2022/12/27 13:03:26;;;;;;;5.72;1.88;;;;;;;5.32;100.00;102170.19;4962127;28;20046;-85
2022/12/27 13:06:13;;;;;;;20.73;2.80;;;;;;;5.32;100.00;102172.78;4955203;28;20412;-81
2022/12/27 13:09:09;;;;;;;7.22;2.00;;;;;;;5.28;100.00;102165.63;4983913;28;20053;-83
2022/12/27 13:12:02;;;;;;;7.50;2.28;;;;;;;5.28;100.00;102166.53;4977647;28;20083;-84
2022/12/27 13:14:48;;;;;;;6.00;2.30;;;;;;;5.25;100.00;102162.88;4996184;28;20061;-83
2022/12/27 13:17:27;;;;;;;8.55;2.00;;;;;;;5.25;100.00;102161.19;4955897;28;20407;-82
2022/12/27 13:20:05;;;;;;;11.05;2.70;;;;;;;5.27;100.00;102167.38;4994050;28;20050;-81
2022/12/27 13:22:57;;;;;;;10.32;2.53;;;;;;;5.26;100.00;102155.13;4997319;28;20062;-85
2022/12/27 13:25:48;;;;;;;10.73;2.03;;;;;;;5.28;100.00;102149.97;4996333;28;20516;-82
2022/12/27 13:28:37;;;;;;;10.18;2.80;;;;;;;5.28;100.00;102152.56;4984936;28;20665;-82
2022/12/27 13:31:18;;;;;;;8.07;2.10;;;;;;;5.29;100.00;102143.88;4976095;28;20057;-81
2022/12/27 13:34:16;;;;;;;14.23;2.67;;;;;;;5.28;100.00;102136.88;4955470;28;20053;-82
2022/12/27 13:37:07;;;;;;;11.00;2.53;;;;;;;5.27;100.00;102140.31;5000556;28;20306;-81
2022/12/27 13:40:07;;;;;;;8.00;2.30;;;;;;;5.24;100.00;102129.75;4983122;28;20412;-81